sensor_id;sensor_type;location;lat;lon;timestamp;P1;durP1;ratioP1;P2;durP2;ratioP2
24631;SDS011;59977;48.782;9.190;2024-02-26T00:01:40;4.85;;;2.33;;
24631;SDS011;59977;48.782;9.190;2024-02-26T00:04:08;3.15;;;1.80;;
24631;SDS011;59977;48.782;9.190;2024-02-26T00:06:34;3.20;;;1.42;;
24631;SDS011;59977;48.782;9.190;2024-02-26T00:08:59;2.35;;;1.60;;
24631;SDS011;59977;48.782;9.190;2024-02-26T00:11:27;3.70;;;1.95;;
24631;SDS011;59977;48.782;9.190;2024-02-26T00:13:53;2.75;;;1.55;;
24631;SDS011;59977;48.782;9.190;2024-02-26T00:16:18;4.40;;;1.90;;
24631;SDS011;59977;48.782;9.190;2024-02-26T00:18:44;3.67;;;1.80;;
24631;SDS011;59977;48.782;9.190;2024-02-26T00:21:09;5.07;;;1.90;;
24631;SDS011;59977;48.782;9.190;2024-02-26T00:23:35;4.47;;;2.03;;
24631;SDS011;59977;48.782;9.190;2024-02-26T00:26:00;5.63;;;2.20;;
24631;SDS011;59977;48.782;9.190;2024-02-26T00:28:26;5.25;;;2.00;;
24631;SDS011;59977;48.782;9.190;2024-02-26T00:30:54;11.02;;;2.55;;
24631;SDS011;59977;48.782;9.190;2024-02-26T00:33:21;4.45;;;2.20;;
24631;SDS011;59977;48.782;9.190;2024-02-26T00:35:47;6.45;;;1.90;;
24631;SDS011;59977;48.782;9.190;2024-02-26T00:38:13;4.40;;;1.88;;
24631;SDS011;59977;48.782;9.190;2024-02-26T00:40:38;3.88;;;1.77;;
24631;SDS011;59977;48.782;9.190;2024-02-26T00:43:05;6.43;;;2.00;;
24631;SDS011;59977;48.782;9.190;2024-02-26T00:45:31;4.03;;;2.40;;
24631;SDS011;59977;48.782;9.190;2024-02-26T00:47:57;4.78;;;2.22;;
24631;SDS011;59977;48.782;9.190;2024-02-26T00:50:23;4.32;;;1.88;;
24631;SDS011;59977;48.782;9.190;2024-02-26T00:52:49;5.95;;;2.08;;
24631;SDS011;59977;48.782;9.190;2024-02-26T00:55:14;5.18;;;1.90;;
24631;SDS011;59977;48.782;9.190;2024-02-26T00:57:40;5.13;;;2.10;;
24631;SDS011;59977;48.782;9.190;2024-02-26T01:00:06;4.68;;;2.00;;
24631;SDS011;59977;48.782;9.190;2024-02-26T01:02:34;3.72;;;2.00;;
24631;SDS011;59977;48.782;9.190;2024-02-26T01:04:59;3.05;;;1.80;;
24631;SDS011;59977;48.782;9.190;2024-02-26T01:07:25;4.03;;;2.15;;
24631;SDS011;59977;48.782;9.190;2024-02-26T01:09:50;6.05;;;2.28;;
24631;SDS011;59977;48.782;9.190;2024-02-26T01:12:16;4.50;;;1.95;;
24631;SDS011;59977;48.782;9.190;2024-02-26T01:14:41;4.00;;;1.70;;
24631;SDS011;59977;48.782;9.190;2024-02-26T01:17:07;5.45;;;2.83;;
24631;SDS011;59977;48.782;9.190;2024-02-26T01:19:33;3.70;;;1.98;;
24631;SDS011;59977;48.782;9.190;2024-02-26T01:21:58;5.32;;;2.10;;
24631;SDS011;59977;48.782;9.190;2024-02-26T01:24:24;6.32;;;1.98;;
24631;SDS011;59977;48.782;9.190;2024-02-26T01:26:49;5.93;;;2.47;;
24631;SDS011;59977;48.782;9.190;2024-02-26T01:29:15;5.10;;;3.00;;
24631;SDS011;59977;48.782;9.190;2024-02-26T01:31:40;3.28;;;2.13;;
24631;SDS011;59977;48.782;9.190;2024-02-26T01:34:06;3.40;;;1.70;;
24631;SDS011;59977;48.782;9.190;2024-02-26T01:36:31;4.15;;;1.92;;
24631;SDS011;59977;48.782;9.190;2024-02-26T01:38:57;4.78;;;2.00;;
24631;SDS011;59977;48.782;9.190;2024-02-26T01:41:23;3.53;;;1.70;;
24631;SDS011;59977;48.782;9.190;2024-02-26T01:43:48;3.50;;;1.90;;
24631;SDS011;59977;48.782;9.190;2024-02-26T01:46:14;2.83;;;1.70;;
24631;SDS011;59977;48.782;9.190;2024-02-26T01:48:41;3.78;;;1.70;;
24631;SDS011;59977;48.782;9.190;2024-02-26T01:51:09;7.68;;;1.80;;
24631;SDS011;59977;48.782;9.190;2024-02-26T01:53:37;4.18;;;1.77;;
24631;SDS011;59977;48.782;9.190;2024-02-26T01:56:03;2.70;;;1.80;;
24631;SDS011;59977;48.782;9.190;2024-02-26T01:58:29;3.60;;;1.70;;
24631;SDS011;59977;48.782;9.190;2024-02-26T02:00:56;2.85;;;1.73;;
24631;SDS011;59977;48.782;9.190;2024-02-26T02:03:22;5.60;;;1.88;;
24631;SDS011;59977;48.782;9.190;2024-02-26T02:05:48;2.42;;;1.55;;
24631;SDS011;59977;48.782;9.190;2024-02-26T02:08:14;3.80;;;2.00;;
24631;SDS011;59977;48.782;9.190;2024-02-26T02:10:40;3.20;;;1.60;;
24631;SDS011;59977;48.782;9.190;2024-02-26T02:13:07;3.35;;;1.92;;
24631;SDS011;59977;48.782;9.190;2024-02-26T02:15:32;3.30;;;1.80;;
24631;SDS011;59977;48.782;9.190;2024-02-26T02:17:58;3.17;;;1.80;;
24631;SDS011;59977;48.782;9.190;2024-02-26T02:20:24;2.90;;;1.67;;
24631;SDS011;59977;48.782;9.190;2024-02-26T02:23:00;2.85;;;1.63;;
24631;SDS011;59977;48.782;9.190;2024-02-26T02:25:26;3.55;;;1.70;;
24631;SDS011;59977;48.782;9.190;2024-02-26T02:27:51;3.03;;;1.77;;
24631;SDS011;59977;48.782;9.190;2024-02-26T02:30:20;3.05;;;1.85;;
24631;SDS011;59977;48.782;9.190;2024-02-26T02:32:48;2.85;;;1.77;;
24631;SDS011;59977;48.782;9.190;2024-02-26T02:35:14;3.38;;;1.90;;
24631;SDS011;59977;48.782;9.190;2024-02-26T02:37:39;2.83;;;1.77;;
24631;SDS011;59977;48.782;9.190;2024-02-26T02:40:05;4.93;;;1.70;;
24631;SDS011;59977;48.782;9.190;2024-02-26T02:42:31;2.20;;;1.60;;
24631;SDS011;59977;48.782;9.190;2024-02-26T02:44:57;4.07;;;1.65;;
24631;SDS011;59977;48.782;9.190;2024-02-26T02:47:23;2.08;;;1.70;;
24631;SDS011;59977;48.782;9.190;2024-02-26T02:49:48;3.22;;;1.48;;
24631;SDS011;59977;48.782;9.190;2024-02-26T02:52:14;4.68;;;1.60;;
24631;SDS011;59977;48.782;9.190;2024-02-26T02:54:39;3.00;;;1.60;;
24631;SDS011;59977;48.782;9.190;2024-02-26T02:57:07;3.35;;;1.63;;
24631;SDS011;59977;48.782;9.190;2024-02-26T02:59:35;4.65;;;1.70;;
24631;SDS011;59977;48.782;9.190;2024-02-26T03:02:02;2.60;;;1.40;;
24631;SDS011;59977;48.782;9.190;2024-02-26T03:04:28;2.47;;;1.38;;
24631;SDS011;59977;48.782;9.190;2024-02-26T03:06:54;3.03;;;1.60;;
24631;SDS011;59977;48.782;9.190;2024-02-26T03:09:20;3.60;;;1.50;;
24631;SDS011;59977;48.782;9.190;2024-02-26T03:11:45;3.42;;;1.63;;
24631;SDS011;59977;48.782;9.190;2024-02-26T03:14:11;3.35;;;1.48;;
24631;SDS011;59977;48.782;9.190;2024-02-26T03:16:37;2.70;;;1.77;;
24631;SDS011;59977;48.782;9.190;2024-02-26T03:19:03;3.35;;;1.48;;
24631;SDS011;59977;48.782;9.190;2024-02-26T03:21:28;2.50;;;1.30;;
24631;SDS011;59977;48.782;9.190;2024-02-26T03:23:54;3.60;;;1.58;;
24631;SDS011;59977;48.782;9.190;2024-02-26T03:26:20;3.85;;;1.30;;
24631;SDS011;59977;48.782;9.190;2024-02-26T03:28:46;2.83;;;1.63;;
24631;SDS011;59977;48.782;9.190;2024-02-26T03:31:12;2.55;;;1.40;;
24631;SDS011;59977;48.782;9.190;2024-02-26T03:33:38;4.13;;;1.70;;
24631;SDS011;59977;48.782;9.190;2024-02-26T03:36:03;2.70;;;1.20;;
24631;SDS011;59977;48.782;9.190;2024-02-26T03:38:30;2.85;;;1.52;;
24631;SDS011;59977;48.782;9.190;2024-02-26T03:40:55;3.88;;;1.67;;
24631;SDS011;59977;48.782;9.190;2024-02-26T03:43:21;4.53;;;1.63;;
24631;SDS011;59977;48.782;9.190;2024-02-26T03:45:47;8.35;;;1.77;;
24631;SDS011;59977;48.782;9.190;2024-02-26T03:48:12;2.38;;;1.40;;
24631;SDS011;59977;48.782;9.190;2024-02-26T03:50:38;2.97;;;1.48;;
24631;SDS011;59977;48.782;9.190;2024-02-26T03:53:04;3.78;;;1.60;;
24631;SDS011;59977;48.782;9.190;2024-02-26T03:55:30;2.83;;;1.67;;
24631;SDS011;59977;48.782;9.190;2024-02-26T03:57:55;3.30;;;2.00;;
24631;SDS011;59977;48.782;9.190;2024-02-26T04:00:21;5.88;;;1.90;;
24631;SDS011;59977;48.782;9.190;2024-02-26T04:02:47;4.15;;;2.03;;
24631;SDS011;59977;48.782;9.190;2024-02-26T04:05:13;6.70;;;1.92;;
24631;SDS011;59977;48.782;9.190;2024-02-26T04:07:39;3.30;;;2.20;;
24631;SDS011;59977;48.782;9.190;2024-02-26T04:10:08;7.70;;;2.03;;
24631;SDS011;59977;48.782;9.190;2024-02-26T04:12:35;9.13;;;2.00;;
24631;SDS011;59977;48.782;9.190;2024-02-26T04:15:00;7.50;;;2.20;;
24631;SDS011;59977;48.782;9.190;2024-02-26T04:17:26;4.65;;;2.00;;
24631;SDS011;59977;48.782;9.190;2024-02-26T04:19:51;4.53;;;2.00;;
24631;SDS011;59977;48.782;9.190;2024-02-26T04:22:17;3.78;;;1.80;;
24631;SDS011;59977;48.782;9.190;2024-02-26T04:24:43;3.25;;;1.75;;
24631;SDS011;59977;48.782;9.190;2024-02-26T04:27:08;3.30;;;2.03;;
24631;SDS011;59977;48.782;9.190;2024-02-26T04:29:34;3.15;;;1.60;;
24631;SDS011;59977;48.782;9.190;2024-02-26T04:31:59;3.45;;;1.92;;
24631;SDS011;59977;48.782;9.190;2024-02-26T04:34:25;7.32;;;2.13;;
24631;SDS011;59977;48.782;9.190;2024-02-26T04:36:50;4.15;;;2.03;;
24631;SDS011;59977;48.782;9.190;2024-02-26T04:39:16;4.15;;;2.50;;
24631;SDS011;59977;48.782;9.190;2024-02-26T04:41:41;7.93;;;2.10;;
24631;SDS011;59977;48.782;9.190;2024-02-26T04:44:07;6.95;;;2.20;;
24631;SDS011;59977;48.782;9.190;2024-02-26T04:46:33;4.55;;;1.85;;
24631;SDS011;59977;48.782;9.190;2024-02-26T04:48:58;6.82;;;1.92;;
24631;SDS011;59977;48.782;9.190;2024-02-26T04:51:24;2.05;;;1.50;;
24631;SDS011;59977;48.782;9.190;2024-02-26T04:53:50;4.40;;;1.70;;
24631;SDS011;59977;48.782;9.190;2024-02-26T04:56:15;7.93;;;1.98;;
24631;SDS011;59977;48.782;9.190;2024-02-26T04:58:41;5.75;;;1.80;;
24631;SDS011;59977;48.782;9.190;2024-02-26T05:01:07;3.20;;;1.63;;
24631;SDS011;59977;48.782;9.190;2024-02-26T05:03:35;4.60;;;1.60;;
24631;SDS011;59977;48.782;9.190;2024-02-26T05:06:00;3.20;;;1.80;;
24631;SDS011;59977;48.782;9.190;2024-02-26T05:08:26;4.90;;;1.88;;
24631;SDS011;59977;48.782;9.190;2024-02-26T05:10:51;5.32;;;1.95;;
24631;SDS011;59977;48.782;9.190;2024-02-26T05:13:17;7.18;;;2.15;;
24631;SDS011;59977;48.782;9.190;2024-02-26T05:15:44;2.53;;;1.88;;
24631;SDS011;59977;48.782;9.190;2024-02-26T05:18:11;5.13;;;2.35;;
24631;SDS011;59977;48.782;9.190;2024-02-26T05:20:37;6.22;;;2.20;;
24631;SDS011;59977;48.782;9.190;2024-02-26T05:23:03;4.28;;;2.22;;
24631;SDS011;59977;48.782;9.190;2024-02-26T05:25:29;3.45;;;1.92;;
24631;SDS011;59977;48.782;9.190;2024-02-26T05:27:55;5.00;;;2.42;;
24631;SDS011;59977;48.782;9.190;2024-02-26T05:30:20;3.97;;;2.10;;
24631;SDS011;59977;48.782;9.190;2024-02-26T05:32:46;3.53;;;1.70;;
24631;SDS011;59977;48.782;9.190;2024-02-26T05:35:12;6.90;;;2.05;;
24631;SDS011;59977;48.782;9.190;2024-02-26T05:37:37;12.70;;;7.07;;
24631;SDS011;59977;48.782;9.190;2024-02-26T05:40:03;6.70;;;3.60;;
24631;SDS011;59977;48.782;9.190;2024-02-26T05:42:30;3.33;;;1.77;;
24631;SDS011;59977;48.782;9.190;2024-02-26T05:44:56;8.70;;;1.85;;
24631;SDS011;59977;48.782;9.190;2024-02-26T05:47:22;4.22;;;2.00;;
24631;SDS011;59977;48.782;9.190;2024-02-26T05:49:48;7.00;;;1.85;;
24631;SDS011;59977;48.782;9.190;2024-02-26T05:52:14;3.35;;;1.90;;
24631;SDS011;59977;48.782;9.190;2024-02-26T05:54:39;2.25;;;1.52;;
24631;SDS011;59977;48.782;9.190;2024-02-26T05:57:05;7.65;;;2.30;;
24631;SDS011;59977;48.782;9.190;2024-02-26T05:59:30;4.93;;;1.90;;
24631;SDS011;59977;48.782;9.190;2024-02-26T06:01:56;5.30;;;2.22;;
24631;SDS011;59977;48.782;9.190;2024-02-26T06:04:21;4.05;;;1.80;;
24631;SDS011;59977;48.782;9.190;2024-02-26T06:06:47;3.83;;;1.67;;
24631;SDS011;59977;48.782;9.190;2024-02-26T06:09:13;4.20;;;2.08;;
24631;SDS011;59977;48.782;9.190;2024-02-26T06:11:38;4.57;;;2.70;;
24631;SDS011;59977;48.782;9.190;2024-02-26T06:14:04;5.50;;;2.65;;
24631;SDS011;59977;48.782;9.190;2024-02-26T06:16:30;4.82;;;1.92;;
24631;SDS011;59977;48.782;9.190;2024-02-26T06:18:55;5.50;;;2.67;;
24631;SDS011;59977;48.782;9.190;2024-02-26T06:21:21;3.88;;;2.30;;
24631;SDS011;59977;48.782;9.190;2024-02-26T06:23:47;5.90;;;2.13;;
24631;SDS011;59977;48.782;9.190;2024-02-26T06:26:13;4.45;;;1.98;;
24631;SDS011;59977;48.782;9.190;2024-02-26T06:28:38;3.60;;;2.10;;
24631;SDS011;59977;48.782;9.190;2024-02-26T06:31:05;4.50;;;2.30;;
24631;SDS011;59977;48.782;9.190;2024-02-26T06:33:32;3.35;;;2.05;;
24631;SDS011;59977;48.782;9.190;2024-02-26T06:35:57;3.38;;;2.10;;
24631;SDS011;59977;48.782;9.190;2024-02-26T06:38:23;4.57;;;2.13;;
24631;SDS011;59977;48.782;9.190;2024-02-26T06:40:50;3.42;;;2.20;;
24631;SDS011;59977;48.782;9.190;2024-02-26T06:43:15;4.55;;;2.25;;
24631;SDS011;59977;48.782;9.190;2024-02-26T06:45:41;3.67;;;2.00;;
24631;SDS011;59977;48.782;9.190;2024-02-26T06:48:06;3.38;;;2.10;;
24631;SDS011;59977;48.782;9.190;2024-02-26T06:50:32;3.38;;;2.08;;
24631;SDS011;59977;48.782;9.190;2024-02-26T06:52:58;3.22;;;2.28;;
24631;SDS011;59977;48.782;9.190;2024-02-26T06:55:27;5.60;;;3.03;;
24631;SDS011;59977;48.782;9.190;2024-02-26T06:57:53;3.92;;;1.85;;
24631;SDS011;59977;48.782;9.190;2024-02-26T07:00:19;6.80;;;2.63;;
24631;SDS011;59977;48.782;9.190;2024-02-26T07:02:44;5.47;;;2.15;;
24631;SDS011;59977;48.782;9.190;2024-02-26T07:05:11;5.88;;;2.45;;
24631;SDS011;59977;48.782;9.190;2024-02-26T07:07:37;6.20;;;2.40;;
24631;SDS011;59977;48.782;9.190;2024-02-26T07:10:03;8.10;;;2.70;;
24631;SDS011;59977;48.782;9.190;2024-02-26T07:12:30;5.72;;;2.25;;
24631;SDS011;59977;48.782;9.190;2024-02-26T07:14:56;4.70;;;2.20;;
24631;SDS011;59977;48.782;9.190;2024-02-26T07:17:22;5.53;;;2.20;;
24631;SDS011;59977;48.782;9.190;2024-02-26T07:19:48;4.38;;;2.15;;
24631;SDS011;59977;48.782;9.190;2024-02-26T07:22:16;9.00;;;3.08;;
24631;SDS011;59977;48.782;9.190;2024-02-26T07:24:42;12.57;;;2.95;;
24631;SDS011;59977;48.782;9.190;2024-02-26T07:27:08;15.40;;;2.42;;
24631;SDS011;59977;48.782;9.190;2024-02-26T07:29:34;6.38;;;2.88;;
24631;SDS011;59977;48.782;9.190;2024-02-26T07:31:59;10.63;;;2.70;;
24631;SDS011;59977;48.782;9.190;2024-02-26T07:34:25;5.65;;;2.35;;
24631;SDS011;59977;48.782;9.190;2024-02-26T07:36:57;8.23;;;3.25;;
24631;SDS011;59977;48.782;9.190;2024-02-26T07:39:25;7.17;;;3.23;;
24631;SDS011;59977;48.782;9.190;2024-02-26T07:41:50;8.63;;;3.28;;
24631;SDS011;59977;48.782;9.190;2024-02-26T07:44:18;9.73;;;2.67;;
24631;SDS011;59977;48.782;9.190;2024-02-26T07:46:43;10.98;;;3.30;;
24631;SDS011;59977;48.782;9.190;2024-02-26T07:49:09;7.93;;;3.00;;
24631;SDS011;59977;48.782;9.190;2024-02-26T07:51:36;4.60;;;2.55;;
24631;SDS011;59977;48.782;9.190;2024-02-26T07:54:01;4.88;;;2.80;;
24631;SDS011;59977;48.782;9.190;2024-02-26T07:56:28;9.25;;;3.45;;
24631;SDS011;59977;48.782;9.190;2024-02-26T07:58:54;8.68;;;3.10;;
24631;SDS011;59977;48.782;9.190;2024-02-26T08:01:20;23.92;;;3.70;;
24631;SDS011;59977;48.782;9.190;2024-02-26T08:03:46;8.48;;;3.60;;
24631;SDS011;59977;48.782;9.190;2024-02-26T08:06:13;9.13;;;3.60;;
24631;SDS011;59977;48.782;9.190;2024-02-26T08:08:42;10.32;;;3.10;;
24631;SDS011;59977;48.782;9.190;2024-02-26T08:11:29;14.93;;;7.32;;
24631;SDS011;59977;48.782;9.190;2024-02-26T08:13:55;13.45;;;6.82;;
24631;SDS011;59977;48.782;9.190;2024-02-26T08:16:20;14.40;;;4.38;;
24631;SDS011;59977;48.782;9.190;2024-02-26T08:18:46;18.42;;;4.95;;
24631;SDS011;59977;48.782;9.190;2024-02-26T08:21:11;12.30;;;4.25;;
24631;SDS011;59977;48.782;9.190;2024-02-26T08:23:37;7.90;;;4.05;;
24631;SDS011;59977;48.782;9.190;2024-02-26T08:26:02;6.65;;;3.13;;
24631;SDS011;59977;48.782;9.190;2024-02-26T08:28:32;11.27;;;3.75;;
24631;SDS011;59977;48.782;9.190;2024-02-26T08:30:57;14.50;;;3.53;;
24631;SDS011;59977;48.782;9.190;2024-02-26T08:33:23;8.25;;;3.55;;
24631;SDS011;59977;48.782;9.190;2024-02-26T08:35:53;7.18;;;2.67;;
24631;SDS011;59977;48.782;9.190;2024-02-26T08:38:39;5.30;;;2.50;;
24631;SDS011;59977;48.782;9.190;2024-02-26T08:41:04;7.88;;;2.70;;
24631;SDS011;59977;48.782;9.190;2024-02-26T08:43:33;5.95;;;2.70;;
24631;SDS011;59977;48.782;9.190;2024-02-26T08:46:00;8.85;;;2.63;;
24631;SDS011;59977;48.782;9.190;2024-02-26T08:48:26;8.57;;;2.40;;
24631;SDS011;59977;48.782;9.190;2024-02-26T08:50:51;4.88;;;2.50;;
24631;SDS011;59977;48.782;9.190;2024-02-26T08:53:17;7.15;;;2.97;;
24631;SDS011;59977;48.782;9.190;2024-02-26T08:55:43;8.70;;;3.28;;
24631;SDS011;59977;48.782;9.190;2024-02-26T08:58:09;7.88;;;2.50;;
24631;SDS011;59977;48.782;9.190;2024-02-26T09:11:11;6.70;;;3.35;;
24631;SDS011;59977;48.782;9.190;2024-02-26T09:14:18;6.93;;;3.10;;
24631;SDS011;59977;48.782;9.190;2024-02-26T09:16:45;7.32;;;3.30;;
24631;SDS011;59977;48.782;9.190;2024-02-26T09:19:13;10.00;;;3.38;;
24631;SDS011;59977;48.782;9.190;2024-02-26T09:21:43;8.52;;;3.35;;
24631;SDS011;59977;48.782;9.190;2024-02-26T09:24:12;11.57;;;3.47;;
24631;SDS011;59977;48.782;9.190;2024-02-26T09:26:37;7.65;;;3.65;;
24631;SDS011;59977;48.782;9.190;2024-02-26T09:29:04;8.43;;;3.65;;
24631;SDS011;59977;48.782;9.190;2024-02-26T09:31:31;17.58;;;4.25;;
24631;SDS011;59977;48.782;9.190;2024-02-26T09:33:56;8.48;;;3.58;;
24631;SDS011;59977;48.782;9.190;2024-02-26T09:36:22;12.90;;;4.03;;
24631;SDS011;59977;48.782;9.190;2024-02-26T09:38:48;8.63;;;3.25;;
24631;SDS011;59977;48.782;9.190;2024-02-26T09:41:14;7.55;;;3.45;;
24631;SDS011;59977;48.782;9.190;2024-02-26T09:43:41;5.43;;;3.20;;
24631;SDS011;59977;48.782;9.190;2024-02-26T09:46:15;8.55;;;3.85;;
24631;SDS011;59977;48.782;9.190;2024-02-26T09:48:43;11.73;;;4.07;;
24631;SDS011;59977;48.782;9.190;2024-02-26T09:51:10;17.02;;;4.47;;
24631;SDS011;59977;48.782;9.190;2024-02-26T09:53:39;11.98;;;3.90;;
24631;SDS011;59977;48.782;9.190;2024-02-26T09:56:08;22.42;;;4.22;;
24631;SDS011;59977;48.782;9.190;2024-02-26T09:58:36;13.40;;;4.05;;
24631;SDS011;59977;48.782;9.190;2024-02-26T10:01:10;14.90;;;3.85;;
24631;SDS011;59977;48.782;9.190;2024-02-26T10:03:40;12.30;;;3.67;;
24631;SDS011;59977;48.782;9.190;2024-02-26T10:06:11;8.82;;;3.30;;
24631;SDS011;59977;48.782;9.190;2024-02-26T10:08:42;7.63;;;3.03;;
24631;SDS011;59977;48.782;9.190;2024-02-26T10:11:10;18.38;;;3.40;;
24631;SDS011;59977;48.782;9.190;2024-02-26T10:14:01;11.23;;;3.33;;
24631;SDS011;59977;48.782;9.190;2024-02-26T10:16:26;6.43;;;2.85;;
24631;SDS011;59977;48.782;9.190;2024-02-26T10:18:53;5.15;;;2.95;;
24631;SDS011;59977;48.782;9.190;2024-02-26T10:21:22;11.98;;;3.45;;
24631;SDS011;59977;48.782;9.190;2024-02-26T10:23:48;6.25;;;3.53;;
24631;SDS011;59977;48.782;9.190;2024-02-26T10:26:15;9.38;;;3.30;;
24631;SDS011;59977;48.782;9.190;2024-02-26T10:28:42;14.35;;;3.50;;
24631;SDS011;59977;48.782;9.190;2024-02-26T10:31:09;13.60;;;3.70;;
24631;SDS011;59977;48.782;9.190;2024-02-26T10:33:36;10.93;;;3.53;;
24631;SDS011;59977;48.782;9.190;2024-02-26T10:36:05;19.85;;;6.53;;
24631;SDS011;59977;48.782;9.190;2024-02-26T10:38:32;10.13;;;3.67;;
24631;SDS011;59977;48.782;9.190;2024-02-26T10:41:01;12.68;;;3.13;;
24631;SDS011;59977;48.782;9.190;2024-02-26T10:43:37;5.40;;;2.70;;
24631;SDS011;59977;48.782;9.190;2024-02-26T10:46:04;14.10;;;3.40;;
24631;SDS011;59977;48.782;9.190;2024-02-26T10:48:33;11.75;;;4.60;;
24631;SDS011;59977;48.782;9.190;2024-02-26T10:51:00;7.13;;;3.60;;
24631;SDS011;59977;48.782;9.190;2024-02-26T10:53:25;11.23;;;3.92;;
24631;SDS011;59977;48.782;9.190;2024-02-26T10:55:54;16.17;;;3.95;;
24631;SDS011;59977;48.782;9.190;2024-02-26T10:58:25;11.63;;;4.13;;
24631;SDS011;59977;48.782;9.190;2024-02-26T11:00:54;9.90;;;4.20;;
24631;SDS011;59977;48.782;9.190;2024-02-26T11:03:22;14.57;;;4.70;;
24631;SDS011;59977;48.782;9.190;2024-02-26T11:05:50;16.67;;;5.63;;
24631;SDS011;59977;48.782;9.190;2024-02-26T11:08:23;9.15;;;4.07;;
24631;SDS011;59977;48.782;9.190;2024-02-26T11:10:52;17.17;;;5.10;;
24631;SDS011;59977;48.782;9.190;2024-02-26T11:13:19;8.45;;;3.78;;
24631;SDS011;59977;48.782;9.190;2024-02-26T11:15:46;9.45;;;4.13;;
24631;SDS011;59977;48.782;9.190;2024-02-26T11:18:14;10.95;;;4.25;;
24631;SDS011;59977;48.782;9.190;2024-02-26T11:20:41;7.38;;;3.80;;
24631;SDS011;59977;48.782;9.190;2024-02-26T11:23:15;8.80;;;4.28;;
24631;SDS011;59977;48.782;9.190;2024-02-26T11:25:41;10.50;;;3.60;;
24631;SDS011;59977;48.782;9.190;2024-02-26T11:28:11;8.02;;;3.58;;
24631;SDS011;59977;48.782;9.190;2024-02-26T11:30:40;9.68;;;3.20;;
24631;SDS011;59977;48.782;9.190;2024-02-26T11:33:09;9.00;;;3.72;;
24631;SDS011;59977;48.782;9.190;2024-02-26T11:35:38;10.43;;;3.45;;
24631;SDS011;59977;48.782;9.190;2024-02-26T11:38:07;8.98;;;3.15;;
24631;SDS011;59977;48.782;9.190;2024-02-26T11:40:33;7.07;;;2.90;;
24631;SDS011;59977;48.782;9.190;2024-02-26T11:43:04;9.95;;;3.35;;
24631;SDS011;59977;48.782;9.190;2024-02-26T13:24:22;3.72;;;1.67;;
24631;SDS011;59977;48.782;9.190;2024-02-26T13:26:59;4.22;;;1.83;;
24631;SDS011;59977;48.782;9.190;2024-02-26T13:36:43;5.55;;;1.50;;
24631;SDS011;59977;48.782;9.190;2024-02-26T13:39:52;6.20;;;1.58;;
24631;SDS011;59977;48.782;9.190;2024-02-26T13:42:20;4.45;;;1.40;;
24631;SDS011;59977;48.782;9.190;2024-02-26T13:45:37;2.10;;;1.35;;
24631;SDS011;59977;48.782;9.190;2024-02-26T13:51:10;5.43;;;2.05;;
24631;SDS011;59977;48.782;9.190;2024-02-26T13:57:13;2.20;;;1.40;;
24631;SDS011;59977;48.782;9.190;2024-02-26T14:07:28;3.35;;;1.58;;
24631;SDS011;59977;48.782;9.190;2024-02-26T14:09:59;2.20;;;1.10;;
24631;SDS011;59977;48.782;9.190;2024-02-26T14:12:47;2.90;;;1.02;;
24631;SDS011;59977;48.782;9.190;2024-02-26T14:15:30;5.13;;;1.98;;
24631;SDS011;59977;48.782;9.190;2024-02-26T14:18:16;5.47;;;1.20;;
24631;SDS011;59977;48.782;9.190;2024-02-26T14:20:54;2.13;;;1.48;;
24631;SDS011;59977;48.782;9.190;2024-02-26T14:23:20;2.75;;;1.58;;
24631;SDS011;59977;48.782;9.190;2024-02-26T14:25:48;3.70;;;1.20;;
24631;SDS011;59977;48.782;9.190;2024-02-26T14:28:13;2.53;;;1.40;;
24631;SDS011;59977;48.782;9.190;2024-02-26T14:33:14;2.28;;;1.10;;
24631;SDS011;59977;48.782;9.190;2024-02-26T14:35:40;5.63;;;0.70;;
24631;SDS011;59977;48.782;9.190;2024-02-26T14:38:06;1.55;;;0.85;;
24631;SDS011;59977;48.782;9.190;2024-02-26T14:40:31;3.60;;;1.10;;
24631;SDS011;59977;48.782;9.190;2024-02-26T14:42:57;1.13;;;0.80;;
24631;SDS011;59977;48.782;9.190;2024-02-26T14:45:24;2.65;;;1.27;;
24631;SDS011;59977;48.782;9.190;2024-02-26T14:47:50;1.27;;;0.80;;
24631;SDS011;59977;48.782;9.190;2024-02-26T14:50:16;2.63;;;1.10;;
24631;SDS011;59977;48.782;9.190;2024-02-26T14:52:41;1.10;;;0.80;;
24631;SDS011;59977;48.782;9.190;2024-02-26T14:55:07;5.70;;;1.10;;
24631;SDS011;59977;48.782;9.190;2024-02-26T14:57:33;2.50;;;0.82;;
24631;SDS011;59977;48.782;9.190;2024-02-26T14:59:58;2.42;;;1.10;;
24631;SDS011;59977;48.782;9.190;2024-02-26T15:02:24;1.58;;;0.85;;
24631;SDS011;59977;48.782;9.190;2024-02-26T15:04:50;3.10;;;1.20;;
24631;SDS011;59977;48.782;9.190;2024-02-26T15:07:18;1.25;;;1.00;;
24631;SDS011;59977;48.782;9.190;2024-02-26T15:09:46;5.10;;;1.20;;
24631;SDS011;59977;48.782;9.190;2024-02-26T15:12:19;2.42;;;1.40;;
24631;SDS011;59977;48.782;9.190;2024-02-26T15:14:52;2.85;;;1.52;;
24631;SDS011;59977;48.782;9.190;2024-02-26T15:17:26;1.85;;;1.17;;
24631;SDS011;59977;48.782;9.190;2024-02-26T15:23:23;1.85;;;1.52;;
24631;SDS011;59977;48.782;9.190;2024-02-26T15:29:20;5.28;;;1.20;;
24631;SDS011;59977;48.782;9.190;2024-02-26T15:31:54;3.30;;;1.27;;
24631;SDS011;59977;48.782;9.190;2024-02-26T15:34:22;4.30;;;1.20;;
24631;SDS011;59977;48.782;9.190;2024-02-26T15:36:51;1.77;;;1.10;;
24631;SDS011;59977;48.782;9.190;2024-02-26T15:39:19;3.65;;;1.35;;
24631;SDS011;59977;48.782;9.190;2024-02-26T15:41:46;5.93;;;1.23;;
24631;SDS011;59977;48.782;9.190;2024-02-26T15:44:11;7.72;;;1.70;;
24631;SDS011;59977;48.782;9.190;2024-02-26T15:46:40;3.38;;;1.50;;
24631;SDS011;59977;48.782;9.190;2024-02-26T15:49:09;6.45;;;1.70;;
24631;SDS011;59977;48.782;9.190;2024-02-26T15:51:34;4.30;;;1.70;;
24631;SDS011;59977;48.782;9.190;2024-02-26T15:54:01;2.83;;;1.65;;
24631;SDS011;59977;48.782;9.190;2024-02-26T15:56:36;7.03;;;1.55;;
24631;SDS011;59977;48.782;9.190;2024-02-26T15:59:10;5.00;;;2.40;;
24631;SDS011;59977;48.782;9.190;2024-02-26T16:02:12;3.53;;;1.90;;
24631;SDS011;59977;48.782;9.190;2024-02-26T16:04:38;8.95;;;1.95;;
24631;SDS011;59977;48.782;9.190;2024-02-26T16:07:04;3.67;;;2.17;;
24631;SDS011;59977;48.782;9.190;2024-02-26T16:09:37;7.18;;;1.75;;
24631;SDS011;59977;48.782;9.190;2024-02-26T16:12:07;5.05;;;1.70;;
24631;SDS011;59977;48.782;9.190;2024-02-26T16:14:41;2.63;;;1.77;;
24631;SDS011;59977;48.782;9.190;2024-02-26T16:17:30;7.78;;;2.20;;
24631;SDS011;59977;48.782;9.190;2024-02-26T16:20:02;2.67;;;1.58;;
24631;SDS011;59977;48.782;9.190;2024-02-26T16:22:34;5.07;;;1.90;;
24631;SDS011;59977;48.782;9.190;2024-02-26T16:25:03;4.35;;;1.88;;
24631;SDS011;59977;48.782;9.190;2024-02-26T16:27:29;7.75;;;2.45;;
24631;SDS011;59977;48.782;9.190;2024-02-26T16:29:55;5.13;;;2.20;;
24631;SDS011;59977;48.782;9.190;2024-02-26T16:32:21;3.42;;;2.08;;
24631;SDS011;59977;48.782;9.190;2024-02-26T16:34:47;11.88;;;2.30;;
24631;SDS011;59977;48.782;9.190;2024-02-26T16:37:13;3.88;;;2.22;;
24631;SDS011;59977;48.782;9.190;2024-02-26T16:39:39;4.15;;;2.25;;
24631;SDS011;59977;48.782;9.190;2024-02-26T16:42:07;6.05;;;2.30;;
24631;SDS011;59977;48.782;9.190;2024-02-26T16:44:35;4.78;;;2.30;;
24631;SDS011;59977;48.782;9.190;2024-02-26T16:47:01;4.90;;;2.33;;
24631;SDS011;59977;48.782;9.190;2024-02-26T16:49:28;6.82;;;2.33;;
24631;SDS011;59977;48.782;9.190;2024-02-26T16:51:54;4.10;;;2.38;;
24631;SDS011;59977;48.782;9.190;2024-02-26T16:54:20;4.75;;;2.45;;
24631;SDS011;59977;48.782;9.190;2024-02-26T16:56:47;6.28;;;2.40;;
24631;SDS011;59977;48.782;9.190;2024-02-26T16:59:13;5.40;;;2.70;;
24631;SDS011;59977;48.782;9.190;2024-02-26T17:01:58;5.10;;;2.45;;
24631;SDS011;59977;48.782;9.190;2024-02-26T17:07:20;4.28;;;2.20;;
24631;SDS011;59977;48.782;9.190;2024-02-26T17:09:52;10.68;;;2.30;;
24631;SDS011;59977;48.782;9.190;2024-02-26T17:12:38;5.05;;;2.40;;